Time;durP1;ratioP1;P1;durP2;ratioP2;P2;SDS_P1;SDS_P2;PMS_P1;PMS_P2;Temp;Humidity;BMP_temperature;BMP_pressure;BME280_temperature;BME280_humidity;BME280_pressure;Samples;Min_cycle;Max_cycle;Signal;HPM_P1;HPM_P2
2023/04/15 00:01:08;;;;;;;7.40;5.17;;;;;;;13.63;81.43;98738.59;5072785;28;20228;-68
2023/04/15 00:03:35;;;;;;;5.23;4.83;;;;;;;13.57;81.81;98723.53;5073664;28;20214;-68
2023/04/15 00:06:02;;;;;;;5.13;4.63;;;;;;;13.68;81.79;98714.66;5072658;28;20347;-68
2023/04/15 00:08:33;;;;;;;5.43;4.63;;;;;;;13.64;81.49;98721.50;5073973;28;20638;-68
2023/04/15 00:11:04;;;;;;;5.27;4.87;;;;;;;13.50;82.11;98725.50;5073813;28;20657;-69
2023/04/15 00:13:31;;;;;;;5.23;4.73;;;;;;;13.44;82.52;98726.41;5073258;28;20224;-69
2023/04/15 00:15:58;;;;;;;5.43;4.97;;;;;;;13.35;82.84;98711.00;5072587;28;20631;-69
2023/04/15 00:18:28;;;;;;;5.63;5.13;;;;;;;13.35;82.81;98730.47;5074149;28;20195;-68
2023/04/15 00:20:58;;;;;;;5.57;4.90;;;;;;;13.46;83.36;98744.84;5074368;28;20200;-68
2023/04/15 00:23:25;;;;;;;5.83;5.43;;;;;;;13.50;82.63;98741.50;5074169;28;20188;-68
2023/04/15 00:25:52;;;;;;;5.27;4.80;;;;;;;13.53;82.86;98750.88;5073933;28;20203;-68
2023/04/15 00:28:21;;;;;;;5.43;5.03;;;;;;;13.42;82.69;98749.03;5072411;28;20680;-68
2023/04/15 00:30:50;;;;;;;5.63;5.07;;;;;;;13.43;83.05;98754.13;5072289;28;20677;-68
2023/04/15 00:33:17;;;;;;;5.40;4.70;;;;;;;13.46;83.13;98753.69;5072216;28;20310;-68
2023/04/15 00:35:45;;;;;;;6.00;5.20;;;;;;;13.49;83.15;98739.88;5071981;28;20604;-68
2023/04/15 00:38:12;;;;;;;5.50;5.00;;;;;;;13.52;82.61;98720.72;5072758;28;20667;-69
2023/04/15 00:40:41;;;;;;;7.17;5.77;;;;;;;13.56;82.34;98732.53;5072963;28;20203;-69
2023/04/15 00:43:09;;;;;;;5.87;5.47;;;;;;;13.52;82.34;98736.72;5071450;28;20196;-69
2023/04/15 00:45:39;;;;;;;6.50;5.20;;;;;;;13.51;82.56;98734.28;5038879;28;20203;-68
2023/04/15 00:48:08;;;;;;;6.20;5.57;;;;;;;13.39;82.92;98736.97;5055654;28;20196;-69
2023/04/15 00:50:36;;;;;;;5.90;5.37;;;;;;;13.25;83.62;98740.91;5055855;28;20661;-69
2023/04/15 00:53:03;;;;;;;6.13;5.63;;;;;;;13.15;83.69;98740.66;5072914;28;20227;-68
2023/04/15 00:55:30;;;;;;;5.70;5.27;;;;;;;13.06;83.81;98733.22;5071762;28;20196;-69
2023/04/15 00:57:59;;;;;;;5.93;5.53;;;;;;;12.96;84.04;98741.78;5072786;28;20249;-68
2023/04/15 01:00:26;;;;;;;5.60;5.07;;;;;;;12.83;83.75;98736.63;5072488;28;20204;-68
2023/04/15 01:02:56;;;;;;;5.73;5.33;;;;;;;12.88;84.06;98726.13;5072953;28;20642;-68
2023/04/15 01:05:25;;;;;;;5.40;5.00;;;;;;;12.80;83.57;98723.78;5072468;28;20188;-68
2023/04/15 01:07:54;;;;;;;5.30;4.90;;;;;;;12.71;84.22;98716.34;5071804;28;20658;-68
2023/04/15 01:10:22;;;;;;;5.47;4.97;;;;;;;12.66;83.42;98703.69;5071456;28;20735;-68
2023/04/15 01:12:52;;;;;;;5.33;4.77;;;;;;;12.79;83.60;98708.03;5071030;28;20187;-68
2023/04/15 01:15:19;;;;;;;4.97;4.60;;;;;;;12.68;83.29;98714.94;5072886;28;20604;-68
2023/04/15 01:17:46;;;;;;;5.67;5.27;;;;;;;12.68;82.93;98728.28;5072127;28;20199;-68
2023/04/15 01:20:16;;;;;;;4.63;4.33;;;;;;;12.59;82.94;98734.97;5072068;28;20195;-68
2023/04/15 01:22:44;;;;;;;4.93;4.53;;;;;;;12.63;83.14;98735.31;5072452;28;20207;-68
2023/04/15 01:25:19;;;;;;;4.43;4.03;;;;;;;12.64;82.42;98732.44;5055260;28;20203;-68
2023/04/15 01:27:56;;;;;;;5.17;4.67;;;;;;;12.72;82.00;98734.78;5073012;28;20193;-68
2023/04/15 01:30:26;;;;;;;4.83;4.53;;;;;;;12.83;81.41;98744.63;5073009;28;20194;-68
2023/04/15 01:32:58;;;;;;;4.30;3.93;;;;;;;12.88;79.73;98759.94;5072471;28;20203;-69
2023/04/15 01:35:26;;;;;;;4.20;3.97;;;;;;;12.81;79.67;98754.72;5072447;28;20206;-69
2023/04/15 01:37:55;;;;;;;4.10;3.90;;;;;;;12.75;79.66;98737.00;5072155;28;20277;-69
2023/04/15 01:40:25;;;;;;;4.50;3.70;;;;;;;12.77;78.88;98742.88;5072501;28;20200;-69
2023/04/15 01:42:57;;;;;;;3.60;3.33;;;;;;;12.81;78.44;98746.72;5072824;28;20196;-68
2023/04/15 01:45:24;;;;;;;4.00;3.70;;;;;;;12.80;77.64;98758.44;5072232;28;20257;-68
2023/04/15 01:47:53;;;;;;;3.70;3.40;;;;;;;12.77;78.27;98769.53;5071983;28;20283;-68
2023/04/15 01:50:21;;;;;;;4.00;3.70;;;;;;;12.68;77.83;98748.75;5070753;28;20283;-68
2023/04/15 01:52:48;;;;;;;4.17;3.77;;;;;;;12.60;77.60;98768.56;5072470;28;20196;-68
2023/04/15 01:55:15;;;;;;;4.30;4.00;;;;;;;12.38;77.75;98778.09;5071864;28;20191;-69
2023/04/15 01:57:46;;;;;;;4.27;3.70;;;;;;;12.32;78.21;98780.81;5070585;28;20285;-68
2023/04/15 02:00:19;;;;;;;3.70;3.40;;;;;;;12.11;78.73;98789.25;5072434;28;20199;-68
2023/04/15 02:02:46;;;;;;;3.23;3.03;;;;;;;12.04;78.68;98800.00;5071604;28;20202;-68
2023/04/15 02:05:14;;;;;;;3.60;3.30;;;;;;;11.89;79.43;98802.22;5054518;28;20192;-68
2023/04/15 02:07:44;;;;;;;3.73;3.40;;;;;;;11.96;79.78;98802.94;5071752;28;20659;-68
2023/04/15 02:10:12;;;;;;;3.57;3.37;;;;;;;11.98;78.37;98806.22;5071719;28;20209;-68
2023/04/15 02:12:39;;;;;;;3.20;3.00;;;;;;;11.96;78.62;98802.94;5071382;28;20635;-68
2023/04/15 02:15:10;;;;;;;3.60;3.30;;;;;;;11.96;79.35;98802.94;5071414;28;20586;-68
2023/04/15 02:17:49;;;;;;;4.20;3.37;;;;;;;11.95;79.27;98789.84;5071563;28;20222;-68
2023/04/15 02:20:25;;;;;;;3.23;3.03;;;;;;;11.93;78.47;98790.09;5070378;28;20191;-68
2023/04/15 02:22:53;;;;;;;4.57;3.43;;;;;;;11.89;78.72;98780.94;5070305;28;20205;-68
2023/04/15 02:25:22;;;;;;;3.30;3.00;;;;;;;11.92;78.55;98787.66;5071457;28;20676;-67
2023/04/15 02:27:51;;;;;;;4.23;3.83;;;;;;;12.00;77.61;98793.47;5072344;28;20248;-68
2023/04/15 02:30:19;;;;;;;3.40;3.10;;;;;;;12.07;77.60;98798.72;5071373;28;20193;-68
2023/04/15 02:32:50;;;;;;;4.20;3.80;;;;;;;12.03;77.32;98803.69;5071340;28;20199;-68
2023/04/15 02:35:18;;;;;;;3.93;3.47;;;;;;;12.12;77.01;98790.91;5070002;28;20300;-68
2023/04/15 02:37:46;;;;;;;3.90;3.43;;;;;;;12.18;76.80;98790.84;5071244;28;20325;-68
2023/04/15 02:40:14;;;;;;;3.43;3.23;;;;;;;12.12;77.13;98789.03;5071392;28;20210;-69
2023/04/15 02:42:43;;;;;;;3.10;2.90;;;;;;;12.00;76.48;98782.84;5071331;28;20273;-69
2023/04/15 02:45:12;;;;;;;5.10;3.13;;;;;;;12.03;76.94;98776.25;5071482;28;20198;-68
2023/04/15 02:47:43;;;;;;;3.30;3.10;;;;;;;11.99;76.48;98775.91;5071070;28;20231;-68
2023/04/15 02:50:17;;;;;;;3.77;3.57;;;;;;;12.06;76.59;98797.94;5071248;28;20195;-68
2023/04/15 02:52:44;;;;;;;3.73;3.50;;;;;;;12.12;76.11;98807.69;5071305;28;20208;-68
2023/04/15 02:55:13;;;;;;;3.67;3.37;;;;;;;12.06;76.06;98800.59;5070977;28;20261;-68
2023/04/15 02:57:40;;;;;;;3.67;3.30;;;;;;;12.10;76.44;98804.44;5074193;28;20200;-68
2023/04/15 03:00:15;;;;;;;3.40;2.97;;;;;;;12.21;76.25;98811.66;5074904;28;20191;-68
2023/04/15 03:02:50;;;;;;;4.27;3.83;;;;;;;12.16;76.15;98814.19;5073609;28;20661;-67
2023/04/15 03:05:19;;;;;;;4.07;3.60;;;;;;;12.06;76.30;98808.59;5074065;28;20202;-68
2023/04/15 03:07:46;;;;;;;3.83;3.53;;;;;;;12.00;76.21;98793.47;5073077;28;20628;-68
2023/04/15 03:10:15;;;;;;;4.07;3.73;;;;;;;11.97;76.88;98777.94;5072886;28;20747;-68
2023/04/15 03:12:42;;;;;;;3.70;3.50;;;;;;;12.03;76.35;98792.22;5073085;28;20207;-67
2023/04/15 03:15:12;;;;;;;6.13;4.07;;;;;;;11.95;77.08;98796.00;5072969;28;20222;-68
2023/04/15 03:17:45;;;;;;;3.60;3.40;;;;;;;11.88;77.37;98792.59;5074197;28;20195;-68
2023/04/15 03:20:20;;;;;;;3.90;3.70;;;;;;;11.95;77.61;98809.31;5073048;28;20190;-67
2023/04/15 03:22:48;;;;;;;3.20;3.00;;;;;;;11.93;77.25;98819.38;5073236;28;20200;-67
2023/04/15 03:25:22;;;;;;;3.20;2.90;;;;;;;11.93;77.29;98822.03;5072936;28;20256;-67
2023/04/15 03:27:50;;;;;;;3.30;3.10;;;;;;;11.87;76.82;98819.41;5074337;28;20251;-67
2023/04/15 03:30:25;;;;;;;3.87;3.07;;;;;;;11.81;77.76;98822.97;5072662;28;20237;-67
2023/04/15 03:32:55;;;;;;;3.33;3.03;;;;;;;11.64;78.01;98828.03;5073707;28;20205;-67
2023/04/15 03:35:37;;;;;;;3.73;2.93;;;;;;;11.72;77.72;98827.75;5072947;28;20728;-67
2023/04/15 03:38:07;;;;;;;2.90;2.70;;;;;;;11.74;77.09;98846.16;5074203;28;20680;-67
2023/04/15 03:40:42;;;;;;;2.93;2.83;;;;;;;11.75;77.11;98856.59;5074190;28;20205;-68
2023/04/15 03:43:12;;;;;;;3.07;2.77;;;;;;;11.77;77.58;98862.53;5073983;28;20586;-67
2023/04/15 03:45:39;;;;;;;3.00;2.80;;;;;;;11.70;77.37;98861.75;5073978;28;20210;-67
2023/04/15 03:48:07;;;;;;;2.53;2.43;;;;;;;11.53;76.69;98858.00;5073090;28;20247;-67
2023/04/15 03:50:39;;;;;;;2.60;2.50;;;;;;;11.40;77.52;98855.44;5072594;28;20212;-68
2023/04/15 03:53:09;;;;;;;2.73;2.53;;;;;;;11.48;77.58;98857.00;5072942;28;20194;-68
2023/04/15 03:55:36;;;;;;;3.20;2.90;;;;;;;11.57;77.56;98867.16;5074086;28;20229;-68
2023/04/15 03:58:04;;;;;;;2.63;2.53;;;;;;;11.54;77.22;98872.91;5072534;28;20205;-68
2023/04/15 04:00:34;;;;;;;2.77;2.57;;;;;;;11.55;77.76;98884.38;5073983;28;20221;-68
2023/04/15 04:03:02;;;;;;;2.70;2.60;;;;;;;11.55;76.80;98873.75;5074063;28;20194;-68
2023/04/15 04:05:31;;;;;;;2.97;2.77;;;;;;;11.55;76.61;98879.06;5073381;28;20196;-67
2023/04/15 04:08:01;;;;;;;2.93;2.63;;;;;;;11.51;77.01;98878.66;5071355;28;20201;-68
2023/04/15 04:10:32;;;;;;;5.07;2.70;;;;;;;11.40;76.71;98876.72;5072342;28;20202;-67
2023/04/15 04:13:00;;;;;;;2.73;2.63;;;;;;;11.37;77.39;98877.13;5073341;28;20193;-67
2023/04/15 04:15:27;;;;;;;4.50;3.50;;;;;;;11.34;76.56;98882.06;5071926;28;20225;-67
2023/04/15 04:17:54;;;;;;;2.67;2.47;;;;;;;11.34;76.31;98893.50;5073295;28;20216;-67
2023/04/15 04:20:21;;;;;;;2.63;2.27;;;;;;;11.37;75.55;98894.94;5073428;28;20199;-67
2023/04/15 04:22:48;;;;;;;2.53;2.33;;;;;;;11.20;75.46;98905.28;5072931;28;20263;-67
2023/04/15 04:25:15;;;;;;;2.50;2.30;;;;;;;11.18;76.05;98899.34;5071713;28;20205;-67
2023/04/15 04:27:44;;;;;;;3.63;2.57;;;;;;;11.32;76.13;98878.81;5073216;28;20188;-68
2023/04/15 04:30:16;;;;;;;2.73;2.30;;;;;;;12.05;75.48;98901.97;5071058;28;20209;-67
2023/04/15 04:32:45;;;;;;;3.20;2.90;;;;;;;12.72;71.29;98910.63;5069661;28;20212;-67
2023/04/15 04:35:11;;;;;;;3.90;2.23;;;;;;;13.18;69.52;98926.03;5073008;28;20223;-68
2023/04/15 04:37:41;;;;;;;4.47;2.47;;;;;;;13.52;68.17;98912.81;5072042;28;20238;-68
2023/04/15 04:40:10;;;;;;;2.57;2.37;;;;;;;13.84;65.61;98927.50;5073398;28;20200;-69
2023/04/15 04:42:38;;;;;;;4.40;2.50;;;;;;;14.13;63.64;98928.47;5073220;28;20290;-69
2023/04/15 04:45:07;;;;;;;2.30;2.10;;;;;;;14.44;62.29;98944.97;5072516;28;20592;-67
2023/04/15 04:47:37;;;;;;;2.30;2.20;;;;;;;14.83;60.24;98948.75;5071355;28;20204;-68
2023/04/15 04:50:05;;;;;;;5.27;2.90;;;;;;;15.15;59.10;98942.69;5072834;28;20638;-68
2023/04/15 04:52:35;;;;;;;2.83;2.50;;;;;;;15.44;57.62;98940.88;5054798;28;20188;-68
2023/04/15 04:55:02;;;;;;;2.63;2.40;;;;;;;15.49;56.87;98944.44;5071800;28;20728;-68
2023/04/15 04:57:29;;;;;;;2.83;2.63;;;;;;;15.73;56.79;98950.50;5072428;28;20253;-68
2023/04/15 04:59:57;;;;;;;3.23;3.03;;;;;;;15.96;55.41;98949.53;5071298;28;20207;-68
2023/04/15 05:02:27;;;;;;;3.73;2.33;;;;;;;16.26;54.43;98942.78;5071087;28;20199;-68
2023/04/15 05:04:54;;;;;;;3.30;2.80;;;;;;;16.73;52.91;98949.34;5071264;28;20246;-69
2023/04/15 05:07:21;;;;;;;3.17;2.87;;;;;;;16.81;52.83;98948.94;5072441;28;20196;-68
2023/04/15 05:09:49;;;;;;;3.40;3.00;;;;;;;17.42;50.50;98971.94;5072403;28;20653;-68
2023/04/15 05:12:17;;;;;;;4.47;2.97;;;;;;;17.89;49.26;98949.56;5071963;28;20599;-69
2023/04/15 05:14:45;;;;;;;2.90;2.77;;;;;;;18.11;48.42;98941.41;5071152;28;20227;-69
2023/04/15 05:17:13;;;;;;;3.00;2.80;;;;;;;18.53;48.46;98934.19;5072059;28;20200;-69
2023/04/15 05:19:46;;;;;;;3.13;2.93;;;;;;;18.87;46.19;98938.16;5071385;28;20253;-70
2023/04/15 05:22:13;;;;;;;4.30;3.07;;;;;;;19.22;45.09;98932.88;5072240;28;20665;-70
2023/04/15 05:24:41;;;;;;;2.90;2.70;;;;;;;19.39;44.75;98931.63;5071712;28;20734;-70
2023/04/15 05:27:10;;;;;;;6.97;3.13;;;;;;;19.76;44.71;98926.81;5072004;28;20202;-70
2023/04/15 05:29:37;;;;;;;3.00;2.80;;;;;;;20.35;42.16;98935.19;5071874;28;20208;-70
2023/04/15 05:32:04;;;;;;;6.17;2.90;;;;;;;20.37;42.30;98943.78;5071914;28;20202;-70
2023/04/15 05:34:31;;;;;;;3.03;2.83;;;;;;;21.20;40.65;98959.25;5070656;28;20227;-70
2023/04/15 05:36:59;;;;;;;4.40;2.67;;;;;;;21.62;39.70;98967.66;5071953;28;20188;-70
2023/04/15 05:39:26;;;;;;;2.50;2.30;;;;;;;22.06;37.84;98971.16;5071812;28;20184;-70
2023/04/15 05:41:54;;;;;;;2.60;2.50;;;;;;;21.96;37.24;98963.09;5072188;28;20192;-70
2023/04/15 05:44:21;;;;;;;2.93;2.73;;;;;;;21.81;38.78;98957.81;5072173;28;20221;-70
2023/04/15 05:46:51;;;;;;;6.70;2.20;;;;;;;21.73;38.26;98955.72;5070759;28;20206;-70
2023/04/15 05:49:21;;;;;;;4.57;2.37;;;;;;;22.02;37.66;98972.81;5072290;28;20204;-71
2023/04/15 05:51:49;;;;;;;2.13;2.03;;;;;;;21.79;38.61;98968.09;5069097;28;20184;-70
2023/04/15 05:54:17;;;;;;;4.37;2.67;;;;;;;21.73;38.28;98971.94;5070587;28;20192;-70
2023/04/15 05:56:45;;;;;;;1.80;1.70;;;;;;;21.80;38.58;98979.75;5070143;28;20204;-70
2023/04/15 05:59:12;;;;;;;3.30;2.20;;;;;;;21.36;38.38;98971.56;5071150;28;20207;-70
2023/04/15 06:01:39;;;;;;;1.80;1.70;;;;;;;21.11;39.32;98977.09;5070801;28;20253;-70
2023/04/15 06:04:06;;;;;;;2.43;1.93;;;;;;;20.89;39.90;98973.91;5071851;28;20202;-71
2023/04/15 06:06:34;;;;;;;1.90;1.80;;;;;;;20.91;40.16;98971.78;5071638;28;20562;-70
2023/04/15 06:09:01;;;;;;;2.10;2.00;;;;;;;20.57;40.98;98986.16;5071161;28;20196;-69
2023/04/15 06:11:34;;;;;;;2.67;2.20;;;;;;;20.38;41.97;98983.19;5070738;28;20253;-69
2023/04/15 06:14:04;;;;;;;2.70;2.50;;;;;;;20.41;42.08;98977.25;5069359;28;20282;-69
2023/04/15 06:16:31;;;;;;;2.40;1.97;;;;;;;20.50;42.00;98981.03;5071534;28;20223;-69
2023/04/15 06:18:58;;;;;;;2.60;2.40;;;;;;;20.40;42.27;98981.03;5071288;28;20678;-70
2023/04/15 06:21:25;;;;;;;2.60;1.80;;;;;;;19.92;43.19;98979.66;5071519;28;20209;-70
2023/04/15 06:23:53;;;;;;;4.80;2.27;;;;;;;19.84;43.85;98979.38;5071465;28;20712;-70
2023/04/15 06:26:20;;;;;;;3.23;1.87;;;;;;;19.60;45.00;98975.59;5071376;28;20688;-70
2023/04/15 06:28:49;;;;;;;4.17;2.33;;;;;;;19.78;44.53;98983.16;5070447;28;20224;-70
2023/04/15 06:31:16;;;;;;;3.27;2.20;;;;;;;20.21;44.77;98988.03;5072649;28;20205;-70
2023/04/15 06:33:45;;;;;;;3.10;1.93;;;;;;;20.62;42.84;99000.41;5075753;28;20254;-72
2023/04/15 06:36:13;;;;;;;2.27;2.10;;;;;;;20.67;43.58;98991.50;5075000;28;20231;-72
2023/04/15 06:38:40;;;;;;;2.30;2.00;;;;;;;21.17;42.84;98996.78;5075969;28;20776;-71
2023/04/15 06:41:08;;;;;;;1.73;1.63;;;;;;;21.53;41.74;98996.38;5075008;28;20200;-71
2023/04/15 06:43:35;;;;;;;2.83;2.17;;;;;;;21.53;41.75;98996.38;5074619;28;20227;-71
2023/04/15 06:46:03;;;;;;;2.50;2.13;;;;;;;21.58;43.04;98988.22;5073494;28;20196;-71
2023/04/15 06:48:31;;;;;;;1.97;1.87;;;;;;;21.63;42.64;98990.88;5071947;28;20282;-71
2023/04/15 06:50:58;;;;;;;4.20;2.47;;;;;;;22.24;42.17;99005.63;5074802;28;20198;-70
2023/04/15 06:53:25;;;;;;;2.83;2.10;;;;;;;22.44;41.55;99000.06;5074473;28;20191;-72
2023/04/15 06:55:52;;;;;;;2.87;2.07;;;;;;;22.01;42.70;98992.03;5074136;28;20230;-72
2023/04/15 06:58:20;;;;;;;3.97;2.20;;;;;;;22.07;43.35;99001.69;5073068;28;20661;-72
2023/04/15 07:00:50;;;;;;;2.40;2.20;;;;;;;22.00;44.32;98996.63;5074083;28;20210;-71
2023/04/15 07:03:19;;;;;;;3.00;2.20;;;;;;;22.09;45.47;98996.84;5074985;28;20191;-70
2023/04/15 07:05:47;;;;;;;2.60;2.40;;;;;;;22.49;43.32;99000.03;5074207;28;20199;-70
2023/04/15 07:08:17;;;;;;;4.07;2.10;;;;;;;22.83;43.92;99000.75;5073170;28;20192;-70
2023/04/15 07:10:46;;;;;;;3.10;2.17;;;;;;;23.05;43.13;98984.81;5074521;28;20218;-70
2023/04/15 07:13:16;;;;;;;2.83;2.40;;;;;;;22.64;44.44;98999.91;5072007;28;20568;-70
2023/04/15 07:15:43;;;;;;;3.93;2.80;;;;;;;22.95;44.01;98998.47;5074089;28;20215;-71
2023/04/15 07:18:10;;;;;;;5.57;2.60;;;;;;;22.75;44.88;99004.09;5073894;28;20188;-71
2023/04/15 07:20:40;;;;;;;3.13;2.83;;;;;;;22.74;45.17;99007.91;5073262;28;20196;-71
2023/04/15 07:23:07;;;;;;;3.67;3.17;;;;;;;22.78;45.23;99003.53;5074708;28;20196;-71
2023/04/15 07:25:34;;;;;;;3.87;3.67;;;;;;;22.25;46.31;98999.13;5074053;28;20193;-73
2023/04/15 07:28:01;;;;;;;4.17;3.80;;;;;;;22.34;46.83;99013.66;5074416;28;20200;-71
2023/04/15 07:30:29;;;;;;;7.53;3.40;;;;;;;22.08;46.77;99020.38;5074287;28;20236;-72
2023/04/15 07:33:04;;;;;;;3.40;3.20;;;;;;;22.56;45.85;99027.59;5071349;28;20230;-70
2023/04/15 07:35:32;;;;;;;16.60;3.80;;;;;;;22.93;43.64;99022.34;5072688;28;20238;-70
2023/04/15 07:38:00;;;;;;;5.93;4.00;;;;;;;22.95;43.38;99005.81;5073800;28;20216;-70
2023/04/15 07:40:27;;;;;;;3.90;2.90;;;;;;;23.20;42.74;99027.22;5073826;28;20208;-71
2023/04/15 07:42:58;;;;;;;3.47;3.20;;;;;;;23.39;42.30;99020.75;5074018;28;20193;-70
2023/04/15 07:45:25;;;;;;;6.87;3.50;;;;;;;23.73;41.09;99015.94;5072754;28;20189;-70
2023/04/15 07:47:52;;;;;;;3.83;3.53;;;;;;;23.15;42.32;98944.03;5073942;28;20201;-70
2023/04/15 07:50:21;;;;;;;3.77;3.47;;;;;;;23.50;42.17;99005.97;5073127;28;20199;-73
2023/04/15 07:52:52;;;;;;;3.93;3.63;;;;;;;23.85;40.95;99001.94;5073288;28;20189;-71
2023/04/15 07:55:29;;;;;;;4.63;3.83;;;;;;;23.61;42.38;99012.84;5074183;28;20208;-73
2023/04/15 07:57:57;;;;;;;3.00;2.80;;;;;;;23.41;40.69;98996.88;5074230;28;20244;-73
2023/04/15 08:00:25;;;;;;;2.50;2.27;;;;;;;23.69;46.82;99012.19;5072957;28;20646;-71
2023/04/15 08:02:52;;;;;;;2.83;2.63;;;;;;;23.84;41.73;99014.69;5073984;28;20203;-71
2023/04/15 08:05:19;;;;;;;5.87;2.23;;;;;;;24.10;44.69;99007.81;5073894;28;20209;-73
2023/04/15 08:07:46;;;;;;;4.40;3.03;;;;;;;24.28;39.20;99007.00;5073647;28;20673;-73
2023/04/15 08:10:13;;;;;;;7.70;2.77;;;;;;;24.78;43.56;99011.56;5073547;28;20201;-71
2023/04/15 08:12:41;;;;;;;3.00;2.70;;;;;;;24.61;38.47;99000.47;5073597;28;20202;-74
2023/04/15 08:15:09;;;;;;;3.43;3.10;;;;;;;24.82;37.69;99017.19;5073546;28;20309;-72
2023/04/15 08:17:35;;;;;;;6.97;3.13;;;;;;;24.51;37.91;99018.84;5073660;28;20200;-71
2023/04/15 08:20:04;;;;;;;3.87;3.03;;;;;;;24.82;40.13;99009.06;5073478;28;20198;-71
2023/04/15 08:22:31;;;;;;;4.03;2.70;;;;;;;25.10;37.49;99018.06;5073071;28;20203;-72
2023/04/15 08:24:58;;;;;;;3.30;3.00;;;;;;;24.99;37.77;99018.22;5072837;28;20195;-76
2023/04/15 08:27:25;;;;;;;4.17;3.27;;;;;;;24.23;38.92;99000.84;5073132;28;20204;-75
2023/04/15 08:29:53;;;;;;;4.23;3.17;;;;;;;24.08;39.53;99014.63;5073133;28;20212;-76
2023/04/15 08:32:20;;;;;;;3.57;3.37;;;;;;;24.37;37.69;99001.69;5073025;28;20235;-66
2023/04/15 08:34:47;;;;;;;4.47;2.93;;;;;;;24.95;40.10;99017.22;5073309;28;20254;-67
2023/04/15 08:37:13;;;;;;;3.40;2.40;;;;;;;25.61;39.43;99002.31;5073020;28;20634;-66
2023/04/15 08:39:40;;;;;;;5.27;2.87;;;;;;;25.72;37.49;99004.50;5073224;28;20246;-68
2023/04/15 08:42:12;;;;;;;3.73;3.23;;;;;;;25.75;36.94;99005.81;5072308;28;20190;-64
2023/04/15 08:44:40;;;;;;;3.93;3.07;;;;;;;25.64;34.34;99002.50;5071570;28;20192;-68
2023/04/15 08:47:09;;;;;;;3.83;2.90;;;;;;;25.52;36.33;99004.94;5072917;28;20208;-66
2023/04/15 08:49:40;;;;;;;7.13;2.50;;;;;;;25.84;36.39;99006.72;5072879;28;20286;-67
2023/04/15 08:52:07;;;;;;;4.40;3.00;;;;;;;26.19;34.84;99008.63;5072782;28;20211;-67
2023/04/15 08:54:35;;;;;;;3.03;2.83;;;;;;;26.55;33.41;98996.53;5071404;28;20188;-67
2023/04/15 08:57:02;;;;;;;3.90;3.00;;;;;;;26.70;35.40;99001.59;5069742;28;20212;-67
2023/04/15 08:59:30;;;;;;;4.43;3.33;;;;;;;26.96;32.48;99001.75;5070744;28;20579;-65
2023/04/15 09:01:58;;;;;;;5.37;2.60;;;;;;;26.89;32.87;99001.38;5072262;28;20200;-65
2023/04/15 09:04:32;;;;;;;19.97;3.97;;;;;;;27.05;31.76;99005.31;5072283;28;20192;-66
2023/04/15 09:07:00;;;;;;;3.37;3.07;;;;;;;27.14;31.60;99000.69;5070257;28;20203;-65
2023/04/15 09:09:28;;;;;;;5.37;3.40;;;;;;;27.13;32.91;98999.91;5072504;28;20654;-65
2023/04/15 09:11:55;;;;;;;3.43;2.80;;;;;;;27.15;31.55;98994.13;5071432;28;20250;-66
2023/04/15 09:14:24;;;;;;;3.33;2.80;;;;;;;26.78;31.27;98995.41;5071627;28;20203;-66
2023/04/15 09:17:02;;;;;;;17.67;2.80;;;;;;;27.15;32.29;99002.31;5063135;28;20228;-68
2023/04/15 09:19:32;;;;;;;18.47;4.17;;;;;;;27.48;32.24;99000.81;5070514;28;20664;-63
2023/04/15 09:22:00;;;;;;;15.07;3.67;;;;;;;27.64;30.84;99002.00;5071896;28;20184;-63
2023/04/15 09:24:36;;;;;;;3.03;2.60;;;;;;;27.70;28.53;98992.50;5072182;28;20198;-63
2023/04/15 09:27:09;;;;;;;12.27;3.20;;;;;;;27.53;29.94;98984.28;5069102;28;20195;-63
2023/04/15 09:29:36;;;;;;;6.80;2.97;;;;;;;27.56;30.59;98983.66;5070357;28;20195;-65
2023/04/15 09:32:13;;;;;;;7.63;3.10;;;;;;;27.69;29.54;98977.25;5065523;28;20673;-66
2023/04/15 09:34:41;;;;;;;5.70;2.60;;;;;;;27.72;30.31;98976.63;5063907;28;20722;-64
2023/04/15 09:37:09;;;;;;;5.23;3.00;;;;;;;27.84;30.14;98977.63;5069153;28;20219;-65
2023/04/15 09:39:47;;;;;;;3.87;2.57;;;;;;;27.79;27.85;98976.94;5067673;28;20276;-63
2023/04/15 09:42:14;;;;;;;2.80;2.67;;;;;;;27.73;30.53;98961.84;5070383;28;20569;-67
2023/04/15 09:44:41;;;;;;;6.53;3.53;;;;;;;27.50;30.22;98968.56;5069918;28;20192;-63
2023/04/15 09:47:08;;;;;;;4.63;2.87;;;;;;;27.61;31.09;98956.22;5070743;28;20199;-67
2023/04/15 09:49:34;;;;;;;6.80;3.10;;;;;;;27.73;31.53;98956.38;5069843;28;20192;-65
2023/04/15 09:52:03;;;;;;;4.03;3.40;;;;;;;27.50;30.44;98957.63;5068620;28;20250;-67
2023/04/15 09:54:35;;;;;;;4.57;3.43;;;;;;;27.37;30.84;98969.50;5066588;28;20192;-67
2023/04/15 09:57:06;;;;;;;4.57;2.90;;;;;;;27.49;31.64;98961.50;5069256;28;20276;-65
2023/04/15 09:59:32;;;;;;;5.83;2.70;;;;;;;27.68;31.49;98962.00;5065542;28;20185;-64
2023/04/15 10:02:00;;;;;;;8.57;3.10;;;;;;;27.39;31.32;98961.78;5070846;28;20245;-66
2023/04/15 10:04:28;;;;;;;4.80;2.80;;;;;;;27.31;31.01;98970.78;5069757;28;20622;-64
2023/04/15 10:06:55;;;;;;;4.90;3.27;;;;;;;27.22;30.37;98962.56;5068891;28;20200;-66
2023/04/15 10:09:24;;;;;;;9.53;2.50;;;;;;;27.33;32.04;98963.06;5069047;28;20200;-66
2023/04/15 10:11:51;;;;;;;4.43;2.87;;;;;;;26.63;30.69;98943.22;5070168;28;20198;-64
2023/04/15 10:14:20;;;;;;;4.13;3.03;;;;;;;26.27;32.42;98939.78;5069657;28;20192;-64
2023/04/15 10:16:48;;;;;;;5.50;3.00;;;;;;;26.46;31.84;98952.06;5069605;28;20775;-63
2023/04/15 10:19:18;;;;;;;6.10;2.30;;;;;;;26.72;31.98;98933.97;5069552;28;20274;-63
2023/04/15 10:21:46;;;;;;;5.70;2.70;;;;;;;26.93;29.33;98936.94;5061262;28;20256;-64
2023/04/15 10:24:13;;;;;;;2.80;2.57;;;;;;;26.84;29.31;98923.28;5070479;28;20199;-65
2023/04/15 10:26:41;;;;;;;13.20;3.03;;;;;;;26.58;30.09;98924.31;5068883;28;20248;-63
2023/04/15 10:29:10;;;;;;;6.47;1.97;;;;;;;26.54;28.11;98923.28;5070532;28;20207;-63
2023/04/15 10:31:38;;;;;;;2.50;1.90;;;;;;;26.56;27.63;98931.94;5067834;28;20250;-64
2023/04/15 10:34:06;;;;;;;7.17;2.50;;;;;;;26.66;29.21;98926.25;5070447;28;20196;-63
2023/04/15 10:36:33;;;;;;;2.23;1.80;;;;;;;26.58;28.62;98924.31;5070288;28;20208;-64
2023/04/15 10:39:00;;;;;;;8.40;2.47;;;;;;;26.63;29.08;98916.81;5032005;28;1111641;-64
2023/04/15 10:41:29;;;;;;;5.43;2.40;;;;;;;26.81;31.41;98909.47;5071047;28;20632;-64
2023/04/15 10:44:03;;;;;;;8.10;4.43;;;;;;;26.77;31.75;98908.50;5071193;28;20219;-63
2023/04/15 10:46:36;;;;;;;3.50;2.47;;;;;;;26.69;31.11;98926.44;5071188;28;20237;-64
2023/04/15 10:49:09;;;;;;;5.53;2.70;;;;;;;26.83;31.97;98901.78;5070571;28;20682;-64
2023/04/15 10:51:40;;;;;;;7.10;3.97;;;;;;;26.89;31.45;98903.25;5071005;28;20181;-63
2023/04/15 10:54:13;;;;;;;4.90;2.47;;;;;;;27.11;30.42;98911.34;5068338;28;20176;-64
2023/04/15 10:56:41;;;;;;;2.97;2.63;;;;;;;27.31;31.14;98906.09;5069971;28;20243;-65
2023/04/15 10:59:10;;;;;;;3.43;3.17;;;;;;;27.44;31.40;98898.91;5070592;28;20662;-65
2023/04/15 11:01:55;;;;;;;4.97;3.70;;;;;;;27.42;31.74;98892.94;5065973;28;20292;-64
2023/04/15 11:04:53;;;;;;;6.60;6.10;;;;;;;26.67;31.56;98906.88;5082469;28;20245;-65
2023/04/15 11:07:48;;;;;;;5.30;4.60;;;;;;;26.47;32.26;98895.69;5067657;28;20200;-62
2023/04/15 11:10:54;;;;;;;6.53;4.77;;;;;;;26.55;33.59;98892.19;5050806;28;20966;-63
2023/04/15 11:13:24;;;;;;;4.67;3.70;;;;;;;26.61;32.46;98896.41;5051038;28;20185;-65
2023/04/15 11:15:57;;;;;;;6.33;5.93;;;;;;;25.41;32.64;98894.78;5050867;28;20184;-66
2023/04/15 11:18:26;;;;;;;8.23;5.07;;;;;;;25.07;38.75;98893.63;5059653;28;20185;-63
2023/04/15 11:20:56;;;;;;;7.77;5.67;;;;;;;25.44;37.11;98887.94;5052580;28;20585;-69
2023/04/15 11:23:29;;;;;;;5.57;4.70;;;;;;;25.68;32.82;98888.44;5053449;28;20231;-64
2023/04/15 11:25:56;;;;;;;5.20;4.67;;;;;;;25.71;34.36;98887.81;5052951;28;20701;-63
2023/04/15 11:28:26;;;;;;;5.23;4.73;;;;;;;25.57;33.31;98876.19;5074373;28;20660;-64
2023/04/15 11:30:55;;;;;;;9.27;6.13;;;;;;;25.46;34.18;98886.50;5054265;28;20197;-64
2023/04/15 11:33:23;;;;;;;4.80;4.40;;;;;;;25.69;36.77;98873.72;5054081;28;20197;-62
2023/04/15 11:35:52;;;;;;;5.60;5.13;;;;;;;25.46;35.57;98896.56;5054398;28;20196;-63
2023/04/15 11:38:19;;;;;;;4.67;4.20;;;;;;;25.63;36.03;98885.84;5073642;28;20220;-63
2023/04/15 11:40:46;;;;;;;4.87;4.40;;;;;;;25.61;34.23;98866.31;5072277;28;20253;-63
2023/04/15 11:43:14;;;;;;;10.53;4.30;;;;;;;25.26;34.87;98864.34;5062704;28;20732;-63